sensor_id;sensor_type;location;lat;lon;timestamp;pressure;altitude;pressure_sealevel;temperature;humidity
71716;BME280;59568;52.128;5.434;2022-07-23T00:00:19;102083.44;;;15.35;71.66
71716;BME280;59568;52.128;5.434;2022-07-23T00:02:46;102082.38;;;15.36;72.00
71716;BME280;59568;52.128;5.434;2022-07-23T00:05:13;102074.28;;;15.32;72.14
71716;BME280;59568;52.128;5.434;2022-07-23T00:07:40;102078.00;;;15.31;72.22
71716;BME280;59568;52.128;5.434;2022-07-23T00:10:08;102076.50;;;15.25;72.50
71716;BME280;59568;52.128;5.434;2022-07-23T00:12:35;102075.19;;;15.23;72.27
71716;BME280;59568;52.128;5.434;2022-07-23T00:15:03;102077.34;;;15.21;71.95
71716;BME280;59568;52.128;5.434;2022-07-23T00:17:31;102077.94;;;15.17;72.30
71716;BME280;59568;52.128;5.434;2022-07-23T00:19:57;102077.97;;;15.12;72.39
71716;BME280;59568;52.128;5.434;2022-07-23T00:22:24;102078.56;;;15.09;72.79
71716;BME280;59568;52.128;5.434;2022-07-23T00:24:51;102074.94;;;15.05;73.09
71716;BME280;59568;52.128;5.434;2022-07-23T00:27:38;102076.09;;;14.99;72.93
71716;BME280;59568;52.128;5.434;2022-07-23T00:30:05;102076.09;;;14.99;72.91
71716;BME280;59568;52.128;5.434;2022-07-23T00:32:32;102069.78;;;14.95;72.95
71716;BME280;59568;52.128;5.434;2022-07-23T00:35:20;102062.75;;;14.90;73.04
71716;BME280;59568;52.128;5.434;2022-07-23T00:37:47;102068.03;;;14.90;72.73
71716;BME280;59568;52.128;5.434;2022-07-23T00:40:14;102060.41;;;14.89;72.82
71716;BME280;59568;52.128;5.434;2022-07-23T00:42:41;102059.13;;;14.86;73.23
71716;BME280;59568;52.128;5.434;2022-07-23T00:45:08;102060.00;;;14.82;73.18
71716;BME280;59568;52.128;5.434;2022-07-23T00:47:36;102065.25;;;14.82;73.29
71716;BME280;59568;52.128;5.434;2022-07-23T00:50:04;102058.41;;;14.81;73.47
71716;BME280;59568;52.128;5.434;2022-07-23T00:52:32;102058.72;;;14.79;73.34
71716;BME280;59568;52.128;5.434;2022-07-23T00:54:59;102052.16;;;14.76;72.99
71716;BME280;59568;52.128;5.434;2022-07-23T00:57:26;102050.09;;;14.73;73.57
71716;BME280;59568;52.128;5.434;2022-07-23T00:59:54;102045.41;;;14.70;73.58
71716;BME280;59568;52.128;5.434;2022-07-23T01:02:21;102044.91;;;14.68;73.67
71716;BME280;59568;52.128;5.434;2022-07-23T01:04:48;102052.28;;;14.66;73.50
71716;BME280;59568;52.128;5.434;2022-07-23T01:07:16;102044.19;;;14.63;73.44
71716;BME280;59568;52.128;5.434;2022-07-23T01:09:44;102038.72;;;14.59;73.50
71716;BME280;59568;52.128;5.434;2022-07-23T01:12:11;102042.69;;;14.56;73.64
71716;BME280;59568;52.128;5.434;2022-07-23T01:14:38;102038.75;;;14.54;73.74
71716;BME280;59568;52.128;5.434;2022-07-23T01:17:05;102038.75;;;14.54;73.50
71716;BME280;59568;52.128;5.434;2022-07-23T01:19:31;102037.75;;;14.50;73.72
71716;BME280;59568;52.128;5.434;2022-07-23T01:22:02;102048.84;;;14.47;73.66
71716;BME280;59568;52.128;5.434;2022-07-23T01:24:29;102036.50;;;14.42;73.71
71716;BME280;59568;52.128;5.434;2022-07-23T01:26:55;102038.13;;;14.38;73.78
71716;BME280;59568;52.128;5.434;2022-07-23T01:29:22;102034.22;;;14.35;73.67
71716;BME280;59568;52.128;5.434;2022-07-23T01:31:49;102037.41;;;14.32;73.75
71716;BME280;59568;52.128;5.434;2022-07-23T01:34:16;102030.66;;;14.26;74.39
71716;BME280;59568;52.128;5.434;2022-07-23T01:36:43;102028.59;;;14.23;74.25
71716;BME280;59568;52.128;5.434;2022-07-23T01:39:10;102030.44;;;14.23;74.88
71716;BME280;59568;52.128;5.434;2022-07-23T01:41:36;102035.41;;;14.24;74.55
71716;BME280;59568;52.128;5.434;2022-07-23T01:44:05;102027.81;;;14.23;74.51
71716;BME280;59568;52.128;5.434;2022-07-23T01:46:32;102026.50;;;14.20;74.30
71716;BME280;59568;52.128;5.434;2022-07-23T01:48:58;102027.31;;;14.21;74.64
71716;BME280;59568;52.128;5.434;2022-07-23T01:51:26;102036.53;;;14.18;74.76
71716;BME280;59568;52.128;5.434;2022-07-23T01:53:53;102027.63;;;14.14;74.62
71716;BME280;59568;52.128;5.434;2022-07-23T01:56:19;102033.16;;;14.12;74.54
71716;BME280;59568;52.128;5.434;2022-07-23T01:58:48;102029.53;;;14.08;74.48
71716;BME280;59568;52.128;5.434;2022-07-23T02:01:15;102026.13;;;14.08;74.70
71716;BME280;59568;52.128;5.434;2022-07-23T02:03:42;102029.31;;;14.05;74.45
71716;BME280;59568;52.128;5.434;2022-07-23T02:06:09;102030.66;;;14.02;74.55
71716;BME280;59568;52.128;5.434;2022-07-23T02:08:36;102023.34;;;13.99;74.70
71716;BME280;59568;52.128;5.434;2022-07-23T02:11:02;102031.50;;;13.97;74.58
71716;BME280;59568;52.128;5.434;2022-07-23T02:13:29;102026.81;;;13.94;74.54
71716;BME280;59568;52.128;5.434;2022-07-23T02:15:59;102026.81;;;13.94;74.71
71716;BME280;59568;52.128;5.434;2022-07-23T02:18:26;102025.78;;;13.90;74.76
71716;BME280;59568;52.128;5.434;2022-07-23T02:20:53;102023.44;;;13.89;74.79
71716;BME280;59568;52.128;5.434;2022-07-23T02:23:20;102020.31;;;13.87;74.38
71716;BME280;59568;52.128;5.434;2022-07-23T02:25:47;102027.69;;;13.85;74.86
71716;BME280;59568;52.128;5.434;2022-07-23T02:28:14;102013.25;;;13.82;74.82
71716;BME280;59568;52.128;5.434;2022-07-23T02:30:41;102018.78;;;13.81;74.90
71716;BME280;59568;52.128;5.434;2022-07-23T02:33:08;102023.31;;;13.75;75.10
71716;BME280;59568;52.128;5.434;2022-07-23T02:35:35;102026.97;;;13.74;74.66
71716;BME280;59568;52.128;5.434;2022-07-23T02:38:02;102040.94;;;13.69;74.79
71716;BME280;59568;52.128;5.434;2022-07-23T02:40:29;102029.94;;;13.67;74.69
71716;BME280;59568;52.128;5.434;2022-07-23T02:42:55;102027.84;;;13.64;75.35
71716;BME280;59568;52.128;5.434;2022-07-23T02:45:22;102027.13;;;13.58;75.15
71716;BME280;59568;52.128;5.434;2022-07-23T02:47:49;102024.00;;;13.56;74.99
71716;BME280;59568;52.128;5.434;2022-07-23T02:50:16;102026.13;;;13.54;75.28
71716;BME280;59568;52.128;5.434;2022-07-23T02:52:43;102029.28;;;13.51;75.06
71716;BME280;59568;52.128;5.434;2022-07-23T02:55:10;102039.00;;;13.51;75.00
71716;BME280;59568;52.128;5.434;2022-07-23T02:57:37;102042.69;;;13.50;75.34
71716;BME280;59568;52.128;5.434;2022-07-23T03:00:05;102036.94;;;13.48;75.55
71716;BME280;59568;52.128;5.434;2022-07-23T03:02:32;102036.41;;;13.46;75.18
71716;BME280;59568;52.128;5.434;2022-07-23T03:04:59;102038.84;;;13.42;75.37
71716;BME280;59568;52.128;5.434;2022-07-23T03:07:26;102031.75;;;13.37;75.32
71716;BME280;59568;52.128;5.434;2022-07-23T03:09:53;102037.28;;;13.36;75.38
71716;BME280;59568;52.128;5.434;2022-07-23T03:12:20;102048.59;;;13.31;75.58
71716;BME280;59568;52.128;5.434;2022-07-23T03:14:46;102053.06;;;13.31;75.60
71716;BME280;59568;52.128;5.434;2022-07-23T03:17:13;102053.34;;;13.29;75.38
71716;BME280;59568;52.128;5.434;2022-07-23T03:19:40;102059.91;;;13.27;75.83
71716;BME280;59568;52.128;5.434;2022-07-23T03:22:07;102058.63;;;13.24;75.38
71716;BME280;59568;52.128;5.434;2022-07-23T03:24:33;102045.50;;;13.24;75.30
71716;BME280;59568;52.128;5.434;2022-07-23T03:27:20;102050.50;;;13.21;76.07
71716;BME280;59568;52.128;5.434;2022-07-23T03:29:46;102049.72;;;13.20;75.82
71716;BME280;59568;52.128;5.434;2022-07-23T03:32:13;102057.84;;;13.18;75.77
71716;BME280;59568;52.128;5.434;2022-07-23T03:34:40;102058.13;;;13.17;75.48
71716;BME280;59568;52.128;5.434;2022-07-23T03:37:08;102061.53;;;13.17;75.80
71716;BME280;59568;52.128;5.434;2022-07-23T03:39:34;102056.84;;;13.14;75.84
71716;BME280;59568;52.128;5.434;2022-07-23T03:42:01;102056.06;;;13.14;75.74
71716;BME280;59568;52.128;5.434;2022-07-23T03:44:28;102057.88;;;13.13;76.19
71716;BME280;59568;52.128;5.434;2022-07-23T03:46:55;102067.88;;;13.11;75.85
71716;BME280;59568;52.128;5.434;2022-07-23T03:49:22;102065.50;;;13.10;76.23
71716;BME280;59568;52.128;5.434;2022-07-23T03:51:49;102068.44;;;13.08;76.04
71716;BME280;59568;52.128;5.434;2022-07-23T03:54:16;102063.19;;;13.08;76.13
71716;BME280;59568;52.128;5.434;2022-07-23T03:56:42;102056.34;;;13.07;75.94
71716;BME280;59568;52.128;5.434;2022-07-23T03:59:09;102060.25;;;13.10;76.03
71716;BME280;59568;52.128;5.434;2022-07-23T04:01:36;102048.97;;;13.09;76.03
71716;BME280;59568;52.128;5.434;2022-07-23T04:04:03;102043.22;;;13.07;76.08
71716;BME280;59568;52.128;5.434;2022-07-23T04:06:30;102049.53;;;13.06;76.31
71716;BME280;59568;52.128;5.434;2022-07-23T04:08:57;102037.47;;;13.05;76.28
71716;BME280;59568;52.128;5.434;2022-07-23T04:11:24;102047.19;;;13.05;76.07
71716;BME280;59568;52.128;5.434;2022-07-23T04:13:51;102051.09;;;13.07;75.85
71716;BME280;59568;52.128;5.434;2022-07-23T04:16:18;102046.13;;;13.06;76.06
71716;BME280;59568;52.128;5.434;2022-07-23T04:18:45;102046.41;;;13.04;75.99
71716;BME280;59568;52.128;5.434;2022-07-23T04:21:11;102045.84;;;13.07;76.17
71716;BME280;59568;52.128;5.434;2022-07-23T04:23:38;102047.44;;;13.08;76.43
71716;BME280;59568;52.128;5.434;2022-07-23T04:26:05;102045.84;;;13.07;76.16
71716;BME280;59568;52.128;5.434;2022-07-23T04:28:32;102037.72;;;13.09;76.41
71716;BME280;59568;52.128;5.434;2022-07-23T04:30:59;102045.31;;;13.10;76.49
71716;BME280;59568;52.128;5.434;2022-07-23T04:33:26;102045.84;;;13.12;76.57
71716;BME280;59568;52.128;5.434;2022-07-23T04:35:53;102043.72;;;13.14;76.53
71716;BME280;59568;52.128;5.434;2022-07-23T04:38:19;102048.69;;;13.16;76.50
71716;BME280;59568;52.128;5.434;2022-07-23T04:40:46;102047.38;;;13.18;76.79
71716;BME280;59568;52.128;5.434;2022-07-23T04:43:13;102047.38;;;13.18;76.32
71716;BME280;59568;52.128;5.434;2022-07-23T04:45:40;102045.50;;;13.19;76.14
71716;BME280;59568;52.128;5.434;2022-07-23T04:48:09;102059.94;;;13.22;76.11
71716;BME280;59568;52.128;5.434;2022-07-23T04:50:36;102051.28;;;13.21;75.81
71716;BME280;59568;52.128;5.434;2022-07-23T04:53:02;102062.03;;;13.25;76.39
71716;BME280;59568;52.128;5.434;2022-07-23T04:55:29;102059.91;;;13.27;76.46
71716;BME280;59568;52.128;5.434;2022-07-23T04:57:56;102062.00;;;13.30;75.82
71716;BME280;59568;52.128;5.434;2022-07-23T05:00:22;102066.72;;;13.33;75.83
71716;BME280;59568;52.128;5.434;2022-07-23T05:02:50;102069.34;;;13.33;76.17
71716;BME280;59568;52.128;5.434;2022-07-23T05:05:16;102066.66;;;13.38;76.41
71716;BME280;59568;52.128;5.434;2022-07-23T05:07:43;102061.38;;;13.43;76.05
71716;BME280;59568;52.128;5.434;2022-07-23T05:10:10;102065.03;;;13.47;75.75
71716;BME280;59568;52.128;5.434;2022-07-23T05:12:36;102069.19;;;13.53;76.57
71716;BME280;59568;52.128;5.434;2022-07-23T05:15:03;102067.84;;;13.56;77.33
71716;BME280;59568;52.128;5.434;2022-07-23T05:17:30;102074.06;;;13.70;75.98
71716;BME280;59568;52.128;5.434;2022-07-23T05:19:57;102073.72;;;13.77;76.08
71716;BME280;59568;52.128;5.434;2022-07-23T05:22:26;102075.53;;;13.82;76.37
71716;BME280;59568;52.128;5.434;2022-07-23T05:24:53;102075.53;;;13.82;76.83
71716;BME280;59568;52.128;5.434;2022-07-23T05:27:20;102078.88;;;13.87;76.67
71716;BME280;59568;52.128;5.434;2022-07-23T05:29:47;102078.00;;;13.97;75.54
71716;BME280;59568;52.128;5.434;2022-07-23T05:32:14;102081.16;;;14.23;74.89
71716;BME280;59568;52.128;5.434;2022-07-23T05:34:41;102086.47;;;14.42;74.38
71716;BME280;59568;52.128;5.434;2022-07-23T05:37:07;102094.72;;;14.60;76.02
71716;BME280;59568;52.128;5.434;2022-07-23T05:39:34;102092.50;;;15.10;74.70
71716;BME280;59568;52.128;5.434;2022-07-23T05:42:01;102095.56;;;15.36;75.03
71716;BME280;59568;52.128;5.434;2022-07-23T05:44:28;102096.53;;;15.40;75.90
71716;BME280;59568;52.128;5.434;2022-07-23T05:47:00;102093.38;;;15.57;73.53
71716;BME280;59568;52.128;5.434;2022-07-23T05:49:27;102086.00;;;16.20;73.16
71716;BME280;59568;52.128;5.434;2022-07-23T05:51:54;102097.53;;;17.83;70.92
71716;BME280;59568;52.128;5.434;2022-07-23T05:54:20;102097.69;;;18.93;66.20
71716;BME280;59568;52.128;5.434;2022-07-23T05:56:47;102104.19;;;19.56;64.88
71716;BME280;59568;52.128;5.434;2022-07-23T05:59:14;102101.63;;;20.25;62.37
71716;BME280;59568;52.128;5.434;2022-07-23T06:01:41;102105.28;;;20.71;62.54
71716;BME280;59568;52.128;5.434;2022-07-23T06:04:08;102094.31;;;20.93;60.24
71716;BME280;59568;52.128;5.434;2022-07-23T06:06:35;102105.34;;;20.83;61.70
71716;BME280;59568;52.128;5.434;2022-07-23T06:09:02;102099.91;;;20.50;62.18
71716;BME280;59568;52.128;5.434;2022-07-23T06:11:30;102098.53;;;20.14;62.90
71716;BME280;59568;52.128;5.434;2022-07-23T06:13:57;102111.94;;;19.79;63.40
71716;BME280;59568;52.128;5.434;2022-07-23T06:16:24;102101.28;;;19.32;65.37
71716;BME280;59568;52.128;5.434;2022-07-23T06:18:50;102113.28;;;18.94;65.17
71716;BME280;59568;52.128;5.434;2022-07-23T06:21:17;102112.13;;;18.69;66.57
71716;BME280;59568;52.128;5.434;2022-07-23T06:24:04;102113.50;;;18.67;67.08
71716;BME280;59568;52.128;5.434;2022-07-23T06:26:31;102106.09;;;18.86;67.30
71716;BME280;59568;52.128;5.434;2022-07-23T06:28:57;102107.81;;;19.08;64.96
71716;BME280;59568;52.128;5.434;2022-07-23T06:31:24;102116.84;;;19.33;65.13
71716;BME280;59568;52.128;5.434;2022-07-23T06:33:51;102111.50;;;19.60;64.80
71716;BME280;59568;52.128;5.434;2022-07-23T06:36:18;102108.22;;;19.80;64.06
71716;BME280;59568;52.128;5.434;2022-07-23T06:38:46;102110.06;;;19.88;63.31
71716;BME280;59568;52.128;5.434;2022-07-23T06:41:14;102111.34;;;19.82;63.83
71716;BME280;59568;52.128;5.434;2022-07-23T06:43:40;102110.72;;;19.59;63.82
71716;BME280;59568;52.128;5.434;2022-07-23T06:46:07;102111.69;;;19.37;64.60
71716;BME280;59568;52.128;5.434;2022-07-23T06:48:34;102119.97;;;19.18;66.15
71716;BME280;59568;52.128;5.434;2022-07-23T06:51:03;102120.44;;;19.11;66.77
71716;BME280;59568;52.128;5.434;2022-07-23T06:53:29;102117.03;;;19.20;67.05
71716;BME280;59568;52.128;5.434;2022-07-23T06:55:56;102122.16;;;19.25;67.45
71716;BME280;59568;52.128;5.434;2022-07-23T06:58:23;102126.53;;;19.38;66.80
71716;BME280;59568;52.128;5.434;2022-07-23T07:00:49;102119.31;;;19.47;66.48
71716;BME280;59568;52.128;5.434;2022-07-23T07:03:17;102119.91;;;19.62;66.37
71716;BME280;59568;52.128;5.434;2022-07-23T07:05:44;102119.44;;;19.77;65.26
71716;BME280;59568;52.128;5.434;2022-07-23T07:08:12;102120.94;;;20.04;63.82
71716;BME280;59568;52.128;5.434;2022-07-23T07:10:38;102127.97;;;20.00;64.96
71716;BME280;59568;52.128;5.434;2022-07-23T07:13:05;102126.34;;;20.08;65.75
71716;BME280;59568;52.128;5.434;2022-07-23T07:15:32;102123.78;;;19.90;65.09
71716;BME280;59568;52.128;5.434;2022-07-23T07:17:58;102126.94;;;19.75;66.12
71716;BME280;59568;52.128;5.434;2022-07-23T07:20:25;102127.41;;;19.77;66.10
71716;BME280;59568;52.128;5.434;2022-07-23T07:22:52;102131.63;;;19.78;64.59
71716;BME280;59568;52.128;5.434;2022-07-23T07:25:19;102134.75;;;19.71;64.82
71716;BME280;59568;52.128;5.434;2022-07-23T07:27:46;102129.56;;;19.92;64.42
71716;BME280;59568;52.128;5.434;2022-07-23T07:30:12;102134.50;;;19.94;65.84
71716;BME280;59568;52.128;5.434;2022-07-23T07:32:40;102147.97;;;20.27;65.05
71716;BME280;59568;52.128;5.434;2022-07-23T07:35:24;102138.63;;;20.60;64.42
71716;BME280;59568;52.128;5.434;2022-07-23T07:37:51;102154.75;;;20.46;62.21
71716;BME280;59568;52.128;5.434;2022-07-23T07:40:18;102156.63;;;20.45;61.75
71716;BME280;59568;52.128;5.434;2022-07-23T07:42:52;102160.25;;;20.41;62.47
71716;BME280;59568;52.128;5.434;2022-07-23T07:45:21;102149.47;;;20.75;62.85
71716;BME280;59568;52.128;5.434;2022-07-23T07:47:48;102145.53;;;21.03;63.01
71716;BME280;59568;52.128;5.434;2022-07-23T07:50:15;102151.28;;;21.26;62.06
71716;BME280;59568;52.128;5.434;2022-07-23T07:52:42;102148.94;;;21.24;58.26
71716;BME280;59568;52.128;5.434;2022-07-23T07:55:10;102156.72;;;21.08;60.17
71716;BME280;59568;52.128;5.434;2022-07-23T07:57:37;102150.41;;;21.34;62.94
71716;BME280;59568;52.128;5.434;2022-07-23T08:00:05;102152.31;;;21.67;62.46
71716;BME280;59568;52.128;5.434;2022-07-23T08:02:47;102157.78;;;21.83;61.88
71716;BME280;59568;52.128;5.434;2022-07-23T08:05:22;102160.59;;;21.99;61.03
71716;BME280;59568;52.128;5.434;2022-07-23T08:07:54;102155.91;;;21.83;61.19
71716;BME280;59568;52.128;5.434;2022-07-23T08:10:21;102155.56;;;21.85;57.71
71716;BME280;59568;52.128;5.434;2022-07-23T08:12:51;102165.44;;;21.84;60.53
71716;BME280;59568;52.128;5.434;2022-07-23T08:15:19;102167.16;;;22.13;60.80
71716;BME280;59568;52.128;5.434;2022-07-23T08:17:47;102167.94;;;22.14;59.40
71716;BME280;59568;52.128;5.434;2022-07-23T08:20:16;102168.13;;;22.21;58.21
71716;BME280;59568;52.128;5.434;2022-07-23T08:22:59;102159.63;;;22.40;58.25
71716;BME280;59568;52.128;5.434;2022-07-23T08:25:45;102167.72;;;22.56;56.53
71716;BME280;59568;52.128;5.434;2022-07-23T08:28:14;102167.06;;;22.34;57.23
71716;BME280;59568;52.128;5.434;2022-07-23T08:30:42;102166.63;;;22.45;56.78
71716;BME280;59568;52.128;5.434;2022-07-23T08:33:12;102164.84;;;22.49;56.72
71716;BME280;59568;52.128;5.434;2022-07-23T08:35:59;102179.50;;;22.43;56.50
71716;BME280;59568;52.128;5.434;2022-07-23T08:38:26;102170.16;;;22.61;56.92
71716;BME280;59568;52.128;5.434;2022-07-23T08:40:55;102166.56;;;22.82;58.62
71716;BME280;59568;52.128;5.434;2022-07-23T08:43:29;102173.97;;;23.01;58.07
71716;BME280;59568;52.128;5.434;2022-07-23T08:45:58;102163.00;;;23.02;54.67
71716;BME280;59568;52.128;5.434;2022-07-23T08:48:29;102161.88;;;23.03;57.29
71716;BME280;59568;52.128;5.434;2022-07-23T08:50:58;102160.94;;;23.11;54.63
71716;BME280;59568;52.128;5.434;2022-07-23T08:53:28;102158.94;;;23.21;56.55
71716;BME280;59568;52.128;5.434;2022-07-23T08:56:00;102160.84;;;23.36;56.67
71716;BME280;59568;52.128;5.434;2022-07-23T08:58:31;102161.00;;;23.71;56.74
71716;BME280;59568;52.128;5.434;2022-07-23T09:00:58;102172.22;;;23.77;55.95
71716;BME280;59568;52.128;5.434;2022-07-23T09:05:54;102166.03;;;23.89;50.90
71716;BME280;59568;52.128;5.434;2022-07-23T09:08:34;102174.50;;;24.07;56.50
71716;BME280;59568;52.128;5.434;2022-07-23T09:11:04;102173.88;;;23.98;51.11
71716;BME280;59568;52.128;5.434;2022-07-23T09:13:47;102171.72;;;23.87;54.79
71716;BME280;59568;52.128;5.434;2022-07-23T09:16:18;102182.81;;;24.21;52.79
71716;BME280;59568;52.128;5.434;2022-07-23T09:19:20;102172.22;;;24.25;53.06
71716;BME280;59568;52.128;5.434;2022-07-23T09:21:40;102178.66;;;24.56;54.84
71716;BME280;59568;52.128;5.434;2022-07-23T09:24:09;102177.47;;;24.72;53.59
71716;BME280;59568;52.128;5.434;2022-07-23T09:26:42;102179.91;;;24.97;54.99
71716;BME280;59568;52.128;5.434;2022-07-23T09:29:37;102180.19;;;24.92;52.02
71716;BME280;59568;52.128;5.434;2022-07-23T09:32:04;102176.53;;;25.00;52.19
71716;BME280;59568;52.128;5.434;2022-07-23T09:34:37;102178.22;;;25.08;50.10
71716;BME280;59568;52.128;5.434;2022-07-23T09:37:10;102177.78;;;24.87;49.26
71716;BME280;59568;52.128;5.434;2022-07-23T09:39:37;102176.38;;;24.74;50.84
71716;BME280;59568;52.128;5.434;2022-07-23T09:42:23;102183.53;;;24.89;52.60
71716;BME280;59568;52.128;5.434;2022-07-23T09:44:52;102179.41;;;25.11;51.48
71716;BME280;59568;52.128;5.434;2022-07-23T09:47:20;102190.06;;;25.07;51.18
71716;BME280;59568;52.128;5.434;2022-07-23T09:50:16;102182.03;;;25.27;52.35
71716;BME280;59568;52.128;5.434;2022-07-23T09:52:52;102183.00;;;25.38;48.99
71716;BME280;59568;52.128;5.434;2022-07-23T09:55:19;102179.75;;;25.48;48.13
71716;BME280;59568;52.128;5.434;2022-07-23T09:57:46;102180.16;;;25.50;50.01
71716;BME280;59568;52.128;5.434;2022-07-23T10:00:22;102176.69;;;25.27;50.92
71716;BME280;59568;52.128;5.434;2022-07-23T10:02:50;102170.75;;;25.37;50.12
71716;BME280;59568;52.128;5.434;2022-07-23T10:05:19;102177.94;;;25.33;51.26
71716;BME280;59568;52.128;5.434;2022-07-23T10:07:46;102179.06;;;25.75;51.79
71716;BME280;59568;52.128;5.434;2022-07-23T10:10:20;102166.63;;;26.09;51.95
71716;BME280;59568;52.128;5.434;2022-07-23T10:12:48;102173.38;;;26.26;50.79
71716;BME280;59568;52.128;5.434;2022-07-23T10:15:17;102172.66;;;26.29;50.07
71716;BME280;59568;52.128;5.434;2022-07-23T10:17:44;102170.84;;;26.37;46.31
71716;BME280;59568;52.128;5.434;2022-07-23T10:20:11;102178.97;;;26.44;48.12
71716;BME280;59568;52.128;5.434;2022-07-23T10:22:47;102169.06;;;26.48;47.02
71716;BME280;59568;52.128;5.434;2022-07-23T10:31:01;102168.50;;;26.58;47.91
71716;BME280;59568;52.128;5.434;2022-07-23T10:36:44;102173.69;;;26.78;48.07
71716;BME280;59568;52.128;5.434;2022-07-23T10:39:22;102172.34;;;26.91;48.74
71716;BME280;59568;52.128;5.434;2022-07-23T10:41:51;102171.88;;;27.19;48.67
71716;BME280;59568;52.128;5.434;2022-07-23T10:44:18;102170.56;;;27.40;48.79
71716;BME280;59568;52.128;5.434;2022-07-23T10:47:28;102167.53;;;27.41;47.04
71716;BME280;59568;52.128;5.434;2022-07-23T10:50:17;102162.22;;;27.48;47.94
71716;BME280;59568;52.128;5.434;2022-07-23T10:58:04;102162.63;;;27.13;46.48
71716;BME280;59568;52.128;5.434;2022-07-23T11:00:32;102163.38;;;27.14;46.42
71716;BME280;59568;52.128;5.434;2022-07-23T11:03:01;102162.19;;;27.45;46.01
71716;BME280;59568;52.128;5.434;2022-07-23T11:05:43;102166.16;;;27.21;45.70
71716;BME280;59568;52.128;5.434;2022-07-23T11:08:15;102167.28;;;27.20;47.06
71716;BME280;59568;52.128;5.434;2022-07-23T11:10:55;102162.75;;;27.24;43.74
71716;BME280;59568;52.128;5.434;2022-07-23T11:13:47;102159.50;;;27.07;45.07
71716;BME280;59568;52.128;5.434;2022-07-23T11:16:22;102160.50;;;27.29;45.47
71716;BME280;59568;52.128;5.434;2022-07-23T11:18:58;102154.50;;;27.43;42.68
71716;BME280;59568;52.128;5.434;2022-07-23T11:24:06;102157.03;;;27.70;45.91
71716;BME280;59568;52.128;5.434;2022-07-23T11:26:57;102153.31;;;27.85;43.57
71716;BME280;59568;52.128;5.434;2022-07-23T11:34:50;102161.84;;;27.91;42.97
71716;BME280;59568;52.128;5.434;2022-07-23T11:37:32;102156.47;;;27.95;42.39
71716;BME280;59568;52.128;5.434;2022-07-23T11:40:01;102154.66;;;28.09;43.28
71716;BME280;59568;52.128;5.434;2022-07-23T11:42:28;102157.22;;;27.92;41.10
71716;BME280;59568;52.128;5.434;2022-07-23T11:44:57;102158.06;;;27.99;41.86
71716;BME280;59568;52.128;5.434;2022-07-23T11:47:25;102159.22;;;28.02;42.08
71716;BME280;59568;52.128;5.434;2022-07-23T11:50:01;102150.47;;;28.12;45.42
71716;BME280;59568;52.128;5.434;2022-07-23T11:52:29;102155.59;;;28.39;40.84
71716;BME280;59568;52.128;5.434;2022-07-23T11:54:58;102153.69;;;28.43;43.49
71716;BME280;59568;52.128;5.434;2022-07-23T11:57:28;102158.47;;;28.75;41.70
71716;BME280;59568;52.128;5.434;2022-07-23T11:59:57;102164.53;;;28.57;41.48
71716;BME280;59568;52.128;5.434;2022-07-23T12:02:24;102162.28;;;28.66;42.40
71716;BME280;59568;52.128;5.434;2022-07-23T12:04:53;102162.09;;;29.22;43.56
71716;BME280;59568;52.128;5.434;2022-07-23T12:07:37;102160.16;;;29.30;40.13
71716;BME280;59568;52.128;5.434;2022-07-23T12:10:12;102154.84;;;28.42;38.96
71716;BME280;59568;52.128;5.434;2022-07-23T12:12:46;102160.34;;;28.01;41.65
71716;BME280;59568;52.128;5.434;2022-07-23T12:15:14;102163.66;;;28.39;43.02
71716;BME280;59568;52.128;5.434;2022-07-23T12:17:44;102155.56;;;28.32;43.59
71716;BME280;59568;52.128;5.434;2022-07-23T12:20:20;102157.09;;;27.77;43.22
71716;BME280;59568;52.128;5.434;2022-07-23T12:22:51;102153.97;;;27.27;43.94
71716;BME280;59568;52.128;5.434;2022-07-23T12:25:21;102149.06;;;27.02;44.60
71716;BME280;59568;52.128;5.434;2022-07-23T12:28:05;102149.53;;;27.08;42.37
71716;BME280;59568;52.128;5.434;2022-07-23T12:30:39;102138.31;;;27.36;43.18
71716;BME280;59568;52.128;5.434;2022-07-23T12:33:07;102142.78;;;27.21;43.11
71716;BME280;59568;52.128;5.434;2022-07-23T12:35:37;102141.69;;;26.92;44.78
71716;BME280;59568;52.128;5.434;2022-07-23T12:38:06;102135.41;;;26.77;46.03
71716;BME280;59568;52.128;5.434;2022-07-23T12:40:37;102140.16;;;26.91;44.32
71716;BME280;59568;52.128;5.434;2022-07-23T12:43:08;102135.19;;;27.30;46.53
71716;BME280;59568;52.128;5.434;2022-07-23T12:45:44;102139.56;;;27.87;46.11
71716;BME280;59568;52.128;5.434;2022-07-23T12:48:29;102127.84;;;27.65;44.99
71716;BME280;59568;52.128;5.434;2022-07-23T12:51:17;102134.03;;;27.73;45.96
71716;BME280;59568;52.128;5.434;2022-07-23T12:53:52;102138.09;;;28.00;44.84
71716;BME280;59568;52.128;5.434;2022-07-23T12:56:31;102139.13;;;28.44;43.41
71716;BME280;59568;52.128;5.434;2022-07-23T12:59:07;102127.72;;;28.68;40.67
71716;BME280;59568;52.128;5.434;2022-07-23T13:01:44;102128.53;;;28.91;37.51
71716;BME280;59568;52.128;5.434;2022-07-23T13:04:22;102130.34;;;28.61;40.39
71716;BME280;59568;52.128;5.434;2022-07-23T13:06:57;102126.91;;;28.61;40.82
71716;BME280;59568;52.128;5.434;2022-07-23T13:09:28;102119.97;;;28.56;41.54
71716;BME280;59568;52.128;5.434;2022-07-23T13:12:00;102126.81;;;28.39;43.75
71716;BME280;59568;52.128;5.434;2022-07-23T13:14:27;102128.97;;;28.16;40.83
71716;BME280;59568;52.128;5.434;2022-07-23T13:16:55;102125.22;;;27.72;40.68
71716;BME280;59568;52.128;5.434;2022-07-23T13:19:25;102124.63;;;27.48;42.10
71716;BME280;59568;52.128;5.434;2022-07-23T13:21:53;102128.03;;;27.42;44.52
71716;BME280;59568;52.128;5.434;2022-07-23T13:24:20;102121.41;;;27.32;43.46
71716;BME280;59568;52.128;5.434;2022-07-23T13:26:47;102122.22;;;27.36;45.82